To NAV CANADA Home Page Login to a new session Search on AWWS site Disclaimer Vers la page française équivalente Tips FAQ What's new on the site To the Forecasts and Observations / NOTAM section To "File a Flight Plan" website Publications and other links Update of the User's profile FIC Telephone Numbers My Weather Data Folder Route Weather Data Regional Weather Data Local Weather Data To the Forecasts and Observations / NOTAM section
Request Generated 10/21/2018 at 06:48:10 UTC . Weather information available at that time is displayed.

METAR/TAF

LA GRANDE-4/QC    (show WxCam)

SPECI CYAH 210646Z AUTO 35008G19KT 9SM -SN OVC024 M06/M10 A2948 RMK SLP004=
SPECI CYAH 210635Z AUTO 36012G21KT 9SM OVC024 M06/M10 A2948 RMK SLP003=
SPECI CYAH 210603Z AUTO 35009G18KT 9SM -SN OVC024 M06/M10 A2946 RMK SLP999=
METAR CYAH 210600Z AUTO 36009G21KT 9SM OVC024 M06/M10 A2947 RMK SLP000=
SPECI CYAH 210543Z AUTO 35011G17KT 9SM OVC024 M06/M10 A2946 RMK SLP997=
SPECI CYAH 210521Z AUTO 36008G17KT 9SM -SN OVC024 M06/M09 A2945 RMK SLP994=
SPECI CYAH 210520Z AUTO 36010G17KT 9SM OVC024 M06/M09 A2945 RMK SLP994=
SPECI CYAH 210507Z AUTO 35012G21KT 9SM -SN OVC024 M06/M09 A2944 RMK SLP993=
METAR CYAH 210500Z AUTO 01011G17KT 9SM OVC024 M05/M09 A2944 RMK SLP992=
SPECI CYAH 210439Z AUTO 36011G18KT 9SM -SN OVC024 M05/M09 A2943 RMK SLP988=
METAR CYAH 210400Z AUTO 36009KT 330V040 9SM OVC024 M05/M09 A2942 RMK SLP984=

*** REMARK        : Forecast period has ended; this was the last TAF issued
*** REMARQUE : La période de prévision est échue; ceci était le dernier TAF qui a été émis
TAF CYAH 201738Z 2018/2021 04012G22KT 4SM -SN BLSN OVC015 TEMPO
2018/2021 1SM -SHSN BLSN VV010
BECMG 2019/2021 36020G30KT
RMK FCST BASED ON AUTO OBS. NXT FCST WILL BE ISSUED AT 211045Z=
Your time UTC time
Weather data provided by Environment Canada and NAV CANADA